Port-Cartier, Canada
Current Conditions -  °F | °C
As of 10:00 PM on Friday 19 Dec 2014 (Local Time) from CYZV Reporting Station
Clear Clear  
Wind Chill:   Ceiling: Unl
Heat Index: 14°   Visibility: 15mi
Dew Point:   Wind: 8mph
Humidity: 62%   Direction: 10°N
Pressure: 30.18"   Gusts: NA
Location:  50.03°N, 66.89°W
Report Text: CYZV 200300Z 01007KT 15SM SKC M10/M16 A3018 RMK SLP224
Loading
Personal Weather Stations






























Interactive Weather Map New forecast layout! Learn more

10-Day Weather Forecast

Advertisements
Track Severe Weather on mobile